createdAt,value
2023-10-15T00:01:38.253Z,65.57
2023-10-15T00:04:42.248Z,65.58
2023-10-15T00:07:46.523Z,65.53
2023-10-15T00:10:50.578Z,65.40
2023-10-15T00:13:54.488Z,65.29
2023-10-15T00:17:00.519Z,65.36
2023-10-15T00:20:07.896Z,65.58
2023-10-15T00:23:14.751Z,65.85
2023-10-15T00:26:22.778Z,65.93
2023-10-15T00:29:26.905Z,65.79
2023-10-15T00:32:31.793Z,65.97
2023-10-15T00:35:36.160Z,66.14
2023-10-15T00:38:40.224Z,65.96
2023-10-15T00:41:47.089Z,66.02
2023-10-15T00:44:51.382Z,66.09
2023-10-15T00:48:09.302Z,65.98
2023-10-15T00:51:15.162Z,65.77
2023-10-15T00:54:20.142Z,65.84
2023-10-15T00:57:43.104Z,66.12
2023-10-15T01:00:53.733Z,66.16
2023-10-15T01:04:00.390Z,65.88
2023-10-15T01:07:15.180Z,65.68
2023-10-15T01:10:30.393Z,65.79
2023-10-15T01:13:34.382Z,65.50
2023-10-15T01:16:39.649Z,65.58
2023-10-15T01:19:43.704Z,65.62
2023-10-15T01:22:47.793Z,65.15
2023-10-15T01:25:51.939Z,65.19
2023-10-15T01:28:56.047Z,65.56
2023-10-15T01:32:04.895Z,65.16
2023-10-15T01:35:12.102Z,65.26
2023-10-15T01:38:21.535Z,65.47
2023-10-15T01:41:26.601Z,65.74
2023-10-15T01:44:32.156Z,66.09
2023-10-15T01:47:37.814Z,66.08
2023-10-15T01:50:47.937Z,65.93
2023-10-15T01:53:52.149Z,65.82
2023-10-15T01:56:56.898Z,65.54
2023-10-15T02:00:07.262Z,65.18
2023-10-15T02:03:12.152Z,64.96
2023-10-15T02:06:21.111Z,64.98
2023-10-15T02:09:30.570Z,64.71
2023-10-15T02:12:34.638Z,64.89
2023-10-15T02:15:40.639Z,64.87
2023-10-15T02:18:46.351Z,64.68
2023-10-15T02:21:52.563Z,64.23
2023-10-15T02:24:57.702Z,64.35
2023-10-15T02:28:01.635Z,64.70
2023-10-15T02:31:16.137Z,64.33
2023-10-15T02:34:26.252Z,63.96
2023-10-15T02:37:30.588Z,64.36
2023-10-15T02:40:56.955Z,64.70
2023-10-15T02:44:01.094Z,64.78
2023-10-15T02:47:11.775Z,64.29
2023-10-15T02:50:17.813Z,63.98
2023-10-15T02:53:24.867Z,63.87
2023-10-15T02:56:29.754Z,63.56
2023-10-15T02:59:33.731Z,63.37
2023-10-15T03:02:44.278Z,63.89
2023-10-15T03:05:49.106Z,63.76
2023-10-15T03:08:53.829Z,63.77
2023-10-15T03:11:58.483Z,63.60
2023-10-15T03:15:05.505Z,63.80
2023-10-15T03:18:15.762Z,63.68
2023-10-15T03:21:27.365Z,63.77
2023-10-15T03:24:35.299Z,63.88
2023-10-15T03:27:40.191Z,63.90
2023-10-15T03:30:46.900Z,64.08
2023-10-15T03:34:07.539Z,63.96
2023-10-15T03:37:14.773Z,64.01
2023-10-15T03:40:31.959Z,64.08
2023-10-15T03:43:37.332Z,64.29
2023-10-15T03:46:42.468Z,64.17
2023-10-15T03:49:48.262Z,64.67
2023-10-15T03:52:52.644Z,64.86
2023-10-15T03:55:58.882Z,64.55
2023-10-15T03:59:02.891Z,63.93
2023-10-15T04:02:10.913Z,63.76
2023-10-15T04:05:16.437Z,63.55
2023-10-15T04:08:20.946Z,63.34
2023-10-15T04:11:32.384Z,63.59
2023-10-15T04:14:36.820Z,63.86
2023-10-15T04:17:40.855Z,63.99
2023-10-15T04:20:44.936Z,63.90
2023-10-15T04:23:54.327Z,63.52
2023-10-15T04:26:58.201Z,63.31
2023-10-15T04:30:02.093Z,63.00
2023-10-15T04:33:11.294Z,63.19
2023-10-15T04:36:15.367Z,63.34
2023-10-15T04:39:46.862Z,63.22
2023-10-15T04:42:50.445Z,63.18
2023-10-15T04:45:55.800Z,62.75
2023-10-15T04:49:00.011Z,62.61
2023-10-15T04:52:15.151Z,62.62
2023-10-15T04:55:19.312Z,62.90
2023-10-15T04:58:28.835Z,62.69
2023-10-15T05:01:34.798Z,62.55
2023-10-15T05:04:38.964Z,62.47
2023-10-15T05:07:44.540Z,62.33
2023-10-15T05:10:51.956Z,61.79
2023-10-15T05:13:56.555Z,62.15
2023-10-15T05:17:01.873Z,61.62
2023-10-15T05:20:13.147Z,61.26
2023-10-15T05:23:17.493Z,61.38
2023-10-15T05:26:23.910Z,61.20
2023-10-15T05:29:27.850Z,61.27
2023-10-15T05:32:32.794Z,61.28
2023-10-15T05:35:39.219Z,61.61
2023-10-15T05:38:43.546Z,61.19
2023-10-15T05:41:47.938Z,61.37
2023-10-15T05:44:51.834Z,61.48
2023-10-15T05:47:55.868Z,61.44
2023-10-15T05:51:00.041Z,61.69
2023-10-15T05:54:05.352Z,61.97
2023-10-15T05:57:09.548Z,62.08
2023-10-15T06:00:28.396Z,62.00
2023-10-15T06:03:32.696Z,61.75
2023-10-15T06:06:38.108Z,61.40
2023-10-15T06:09:42.108Z,61.06
2023-10-15T06:12:46.250Z,61.20
2023-10-15T06:15:50.919Z,61.58
2023-10-15T06:18:54.846Z,61.60
2023-10-15T06:21:58.693Z,60.59
2023-10-15T06:25:06.227Z,60.75
2023-10-15T06:28:15.376Z,60.98
2023-10-15T06:31:19.523Z,60.47
2023-10-15T06:34:24.631Z,60.17
2023-10-15T06:37:29.629Z,59.53
2023-10-15T06:40:33.594Z,57.92
2023-10-15T06:43:38.183Z,58.78
2023-10-15T06:46:42.188Z,59.32
2023-10-15T06:49:46.490Z,60.45
2023-10-15T06:52:50.912Z,61.47
2023-10-15T06:55:54.964Z,60.79
2023-10-15T06:58:59.021Z,61.17
2023-10-15T07:02:04.954Z,61.85
2023-10-15T07:05:09.652Z,62.20
2023-10-15T07:08:13.888Z,63.25
2023-10-15T07:11:17.903Z,65.90
2023-10-15T07:14:21.928Z,66.06
2023-10-15T07:17:26.138Z,64.68
2023-10-15T07:20:30.267Z,63.94
2023-10-15T07:23:34.173Z,63.32
2023-10-15T07:26:38.055Z,62.56
2023-10-15T07:29:42.223Z,61.62
2023-10-15T07:32:46.893Z,61.81
2023-10-15T07:35:51.504Z,60.78
2023-10-15T07:38:56.127Z,60.46
2023-10-15T07:42:00.899Z,59.19
2023-10-15T07:45:07.034Z,57.10
2023-10-15T07:48:11.230Z,57.28
2023-10-15T07:51:16.291Z,58.17
2023-10-15T07:54:20.238Z,59.41
2023-10-15T07:57:24.162Z,59.49
2023-10-15T08:00:30.869Z,59.34
2023-10-15T08:03:35.105Z,59.66
2023-10-15T08:06:39.195Z,59.81
2023-10-15T08:09:43.234Z,61.63
2023-10-15T08:12:47.196Z,63.16
2023-10-15T08:15:52.769Z,62.51
2023-10-15T08:19:00.197Z,60.98
2023-10-15T08:22:04.276Z,60.43
2023-10-15T08:25:14.649Z,60.53
2023-10-15T08:28:19.415Z,60.18
2023-10-15T08:31:23.393Z,60.55
2023-10-15T08:34:27.478Z,59.04
2023-10-15T08:37:31.603Z,57.25
2023-10-15T08:40:40.376Z,56.92
2023-10-15T08:43:47.630Z,56.71
2023-10-15T08:46:53.372Z,56.32
2023-10-15T09:02:31.274Z,58.80
2023-10-15T09:05:39.128Z,59.17
2023-10-15T09:08:45.343Z,58.83
2023-10-15T09:11:52.155Z,59.64
2023-10-15T09:14:58.188Z,60.22
2023-10-15T09:18:04.680Z,59.13
2023-10-15T09:21:10.666Z,58.86
2023-10-15T09:24:18.018Z,58.87
2023-10-15T09:27:23.750Z,59.25
2023-10-15T09:30:32.048Z,59.80
2023-10-15T09:33:38.706Z,59.72
2023-10-15T09:36:44.846Z,60.34
2023-10-15T09:39:50.547Z,62.34
2023-10-15T09:42:56.748Z,63.25
2023-10-15T09:46:01.934Z,60.07
2023-10-15T09:49:08.781Z,56.24
2023-10-15T09:52:15.681Z,56.03
2023-10-15T09:55:21.768Z,56.88
2023-10-15T09:58:28.608Z,57.06
2023-10-15T10:01:35.861Z,57.96
2023-10-15T10:05:01.964Z,58.31
2023-10-15T10:08:19.086Z,58.04
2023-10-15T10:11:39.827Z,57.82
2023-10-15T10:15:02.822Z,57.43
2023-10-15T10:18:09.946Z,58.04
2023-10-15T10:21:17.786Z,59.07
2023-10-15T10:24:25.110Z,59.23
2023-10-15T10:27:42.154Z,59.26
2023-10-15T10:30:58.864Z,59.78
2023-10-15T10:34:05.665Z,59.11
2023-10-15T10:37:23.177Z,59.82
2023-10-15T10:40:47.064Z,59.85
2023-10-15T10:43:58.723Z,59.64
2023-10-15T10:47:26.487Z,59.99
2023-10-15T10:50:49.264Z,59.64
2023-10-15T10:54:28.497Z,59.68
2023-10-15T10:57:34.213Z,59.01
2023-10-15T11:00:40.256Z,59.67
2023-10-15T11:03:47.892Z,58.71
2023-10-15T11:06:53.887Z,58.37
2023-10-15T11:10:03.163Z,57.25
2023-10-15T11:13:09.034Z,58.18
2023-10-15T11:16:15.790Z,58.34
2023-10-15T11:19:23.271Z,58.71
2023-10-15T11:22:29.438Z,59.39
2023-10-15T11:25:35.909Z,58.63
2023-10-15T11:28:42.306Z,58.48
2023-10-15T11:31:49.703Z,58.29
2023-10-15T11:34:58.588Z,58.55
2023-10-15T11:38:10.865Z,58.48
2023-10-15T11:41:16.912Z,57.90
2023-10-15T11:44:28.723Z,57.80
2023-10-15T11:47:36.671Z,57.48
2023-10-15T11:50:45.762Z,57.06
2023-10-15T11:53:51.998Z,57.64
2023-10-15T11:57:01.362Z,57.34
2023-10-15T12:00:10.997Z,56.71
2023-10-15T12:03:17.913Z,56.48
2023-10-15T12:06:24.139Z,56.47
2023-10-15T12:09:28.476Z,56.74
2023-10-15T12:12:33.953Z,56.85
2023-10-15T12:15:40.068Z,56.71
2023-10-15T12:18:44.471Z,56.84
2023-10-15T12:21:51.618Z,57.09
2023-10-15T12:24:57.632Z,56.72
2023-10-15T12:28:03.976Z,56.86
2023-10-15T12:31:09.769Z,57.67
2023-10-15T12:34:15.601Z,56.94
2023-10-15T12:37:25.105Z,57.84
2023-10-15T12:40:33.322Z,57.03
2023-10-15T12:43:41.615Z,57.36
2023-10-15T12:46:47.742Z,58.05
2023-10-15T12:49:52.005Z,57.48
2023-10-15T12:52:59.479Z,57.15
2023-10-15T12:56:05.926Z,57.17
2023-10-15T12:59:11.732Z,57.06
2023-10-15T13:02:21.560Z,57.18
2023-10-15T13:05:29.553Z,57.48
2023-10-15T13:08:35.543Z,57.23
2023-10-15T13:11:41.954Z,57.35
2023-10-15T13:14:47.902Z,57.47
2023-10-15T13:17:56.053Z,57.69
2023-10-15T13:21:02.698Z,58.36
2023-10-15T13:24:11.729Z,58.20
2023-10-15T13:27:18.104Z,58.20
2023-10-15T13:30:26.069Z,58.61
2023-10-15T13:33:31.941Z,58.51
2023-10-15T13:36:37.442Z,58.70
2023-10-15T13:39:43.729Z,59.17
2023-10-15T13:42:49.967Z,59.19
2023-10-15T13:45:55.803Z,59.33
2023-10-15T13:49:01.949Z,59.37
2023-10-15T13:52:06.158Z,59.54
2023-10-15T13:55:14.216Z,59.25
2023-10-15T13:58:20.363Z,59.29
2023-10-15T14:01:24.879Z,59.87
2023-10-15T14:04:30.999Z,59.47
2023-10-15T14:07:35.264Z,59.94
2023-10-15T14:10:41.944Z,59.48
2023-10-15T14:13:47.771Z,59.81
2023-10-15T14:16:53.638Z,60.06
2023-10-15T14:20:00.640Z,59.70
2023-10-15T14:23:07.586Z,59.81
2023-10-15T14:26:14.845Z,60.58
2023-10-15T14:29:21.581Z,60.62
2023-10-15T14:32:28.077Z,60.41
2023-10-15T14:35:34.197Z,60.70
2023-10-15T14:38:40.967Z,59.82
2023-10-15T14:41:46.942Z,59.82
2023-10-15T14:44:52.962Z,59.98
2023-10-15T14:47:59.033Z,60.27
2023-10-15T14:51:06.169Z,60.14
2023-10-15T14:54:12.469Z,60.81
2023-10-15T14:57:20.137Z,60.38
2023-10-15T15:00:26.033Z,59.71
2023-10-15T15:03:33.790Z,59.76
2023-10-15T15:06:40.166Z,59.59
2023-10-15T15:09:45.770Z,59.70
2023-10-15T15:12:51.780Z,59.58
2023-10-15T15:15:59.251Z,59.34
2023-10-15T15:19:06.461Z,59.49
2023-10-15T15:22:10.698Z,58.77
2023-10-15T15:25:16.695Z,58.92
2023-10-15T15:28:22.614Z,59.15
2023-10-15T15:31:28.540Z,59.52
2023-10-15T15:34:36.785Z,59.95
2023-10-15T15:37:43.858Z,60.41
2023-10-15T15:40:54.261Z,61.46
2023-10-15T15:44:01.674Z,61.79
2023-10-15T15:47:10.119Z,61.68
2023-10-15T15:50:18.733Z,64.42
2023-10-15T15:53:26.638Z,64.82
2023-10-15T15:56:32.510Z,62.73
2023-10-15T15:59:38.471Z,61.16
2023-10-15T16:02:45.323Z,60.49
2023-10-15T16:06:00.518Z,58.68
2023-10-15T16:09:10.307Z,59.18
2023-10-15T16:12:18.131Z,61.33
2023-10-15T16:15:24.403Z,61.10
2023-10-15T16:18:29.493Z,61.91
2023-10-15T16:21:35.619Z,61.93
2023-10-15T16:24:49.945Z,64.20
2023-10-15T16:28:02.471Z,65.08
2023-10-15T16:31:08.573Z,63.95
2023-10-15T16:34:14.450Z,63.00
2023-10-15T16:40:24.928Z,62.77
2023-10-15T16:43:31.960Z,63.14
2023-10-15T16:46:37.612Z,62.54
2023-10-15T16:49:43.611Z,60.53
2023-10-15T16:52:49.274Z,58.84
2023-10-15T16:55:55.684Z,59.07
2023-10-15T16:58:59.900Z,60.24
2023-10-15T17:02:07.112Z,60.75
2023-10-15T17:05:13.351Z,61.56
2023-10-15T17:08:18.362Z,63.79
2023-10-15T17:11:24.324Z,65.25
2023-10-15T17:14:30.280Z,64.11
2023-10-15T17:17:36.489Z,62.95
2023-10-15T17:20:41.076Z,62.08
2023-10-15T17:23:47.246Z,62.15
2023-10-15T17:26:53.305Z,61.51
2023-10-15T17:30:17.048Z,60.95
2023-10-15T17:33:25.898Z,60.84
2023-10-15T17:36:36.010Z,60.33
2023-10-15T17:39:54.930Z,59.14
2023-10-15T17:42:59.643Z,59.62
2023-10-15T17:46:05.664Z,60.37
2023-10-15T17:49:12.390Z,61.71
2023-10-15T17:52:18.723Z,64.24
2023-10-15T17:55:26.006Z,64.98
2023-10-15T17:58:33.304Z,64.09
2023-10-15T18:01:39.185Z,63.37
2023-10-15T18:04:45.437Z,62.87
2023-10-15T18:07:51.634Z,62.35
2023-10-15T18:10:57.600Z,61.99
2023-10-15T18:14:03.794Z,61.60
2023-10-15T18:17:12.860Z,61.37
2023-10-15T18:20:20.188Z,61.16
2023-10-15T18:23:26.964Z,60.95
2023-10-15T18:26:32.737Z,60.78
2023-10-15T18:29:38.771Z,60.68
2023-10-15T18:32:45.244Z,60.73
2023-10-15T18:35:51.518Z,60.82
2023-10-15T18:38:57.757Z,61.09
2023-10-15T18:42:03.242Z,61.35
2023-10-15T18:45:11.567Z,61.56
2023-10-15T18:48:18.062Z,61.42
2023-10-15T18:51:37.213Z,61.29
2023-10-15T18:54:44.469Z,61.56
2023-10-15T18:57:52.753Z,61.78
2023-10-15T19:00:58.755Z,62.01
2023-10-15T19:04:05.144Z,62.45
2023-10-15T19:07:11.980Z,62.68
2023-10-15T19:10:18.197Z,62.47
2023-10-15T19:13:22.722Z,62.30
2023-10-15T19:16:28.732Z,62.67
2023-10-15T19:19:35.819Z,62.28
2023-10-15T19:22:43.168Z,61.29
2023-10-15T19:25:49.182Z,60.73
2023-10-15T19:28:55.665Z,60.27
2023-10-15T19:32:01.798Z,59.90
2023-10-15T19:35:11.737Z,59.87
2023-10-15T19:38:18.014Z,58.38
2023-10-15T19:41:23.874Z,58.37
2023-10-15T19:44:29.869Z,59.46
2023-10-15T19:47:36.087Z,60.05
2023-10-15T19:50:41.178Z,63.46
2023-10-15T19:53:49.175Z,65.00
2023-10-15T19:56:56.916Z,63.52
2023-10-15T20:00:06.574Z,62.59
2023-10-15T20:03:13.483Z,62.05
2023-10-15T20:06:19.535Z,61.68
2023-10-15T20:09:25.323Z,62.03
2023-10-15T20:12:31.089Z,61.35
2023-10-15T20:15:37.470Z,60.85
2023-10-15T20:18:42.103Z,60.53
2023-10-15T20:21:51.505Z,60.60
2023-10-15T20:24:57.048Z,60.36
2023-10-15T20:28:03.492Z,59.93
2023-10-15T20:31:10.779Z,59.76
2023-10-15T20:34:16.926Z,59.69
2023-10-15T20:37:23.244Z,58.62
2023-10-15T20:40:27.983Z,58.53
2023-10-15T20:43:33.938Z,59.20
2023-10-15T20:46:39.966Z,60.92
2023-10-15T20:49:47.506Z,63.31
2023-10-15T20:52:53.558Z,64.97
2023-10-15T20:56:00.639Z,64.13
2023-10-15T20:59:06.703Z,63.39
2023-10-15T21:02:13.418Z,62.67
2023-10-15T21:05:20.034Z,62.17
2023-10-15T21:08:26.242Z,61.93
2023-10-15T21:11:32.333Z,61.54
2023-10-15T21:14:39.216Z,61.47
2023-10-15T21:17:45.719Z,61.10
2023-10-15T21:20:51.802Z,60.83
2023-10-15T21:23:57.884Z,60.54
2023-10-15T21:27:03.558Z,60.49
2023-10-15T21:30:11.682Z,60.26
2023-10-15T21:33:17.833Z,60.34
2023-10-15T21:36:24.966Z,59.92
2023-10-15T21:39:31.426Z,59.90
2023-10-15T21:42:37.661Z,59.62
2023-10-15T21:45:41.762Z,59.58
2023-10-15T21:48:48.509Z,59.61
2023-10-15T21:51:54.423Z,59.60
2023-10-15T21:55:00.584Z,58.83
2023-10-15T21:58:06.820Z,58.99
2023-10-15T22:01:11.593Z,60.17
2023-10-15T22:04:17.862Z,60.39
2023-10-15T22:07:23.693Z,63.95
2023-10-15T22:10:29.817Z,65.34
2023-10-15T22:13:36.665Z,64.95
2023-10-15T22:16:44.786Z,64.73
2023-10-15T22:19:52.050Z,64.29
2023-10-15T22:23:01.470Z,63.56
2023-10-15T22:26:08.293Z,63.47
2023-10-15T22:29:17.291Z,62.57
2023-10-15T22:32:28.180Z,62.41
2023-10-15T22:35:33.994Z,62.64
2023-10-15T22:38:40.051Z,62.48
2023-10-15T22:41:45.822Z,61.77
2023-10-15T22:44:51.675Z,61.91
2023-10-15T22:47:57.829Z,61.55
2023-10-15T22:51:02.078Z,61.30
2023-10-15T22:54:08.725Z,61.07
2023-10-15T22:57:15.162Z,60.91
2023-10-15T23:00:24.188Z,60.88
2023-10-15T23:03:30.964Z,60.97
2023-10-15T23:06:37.283Z,61.08
2023-10-15T23:09:43.958Z,60.95
2023-10-15T23:12:50.088Z,61.03
2023-10-15T23:15:56.385Z,60.89
2023-10-15T23:19:05.453Z,60.25
2023-10-15T23:22:11.744Z,60.23
2023-10-15T23:25:16.284Z,60.20
2023-10-15T23:28:24.705Z,60.20
2023-10-15T23:31:30.863Z,60.09
2023-10-15T23:34:38.183Z,60.22
2023-10-15T23:37:44.393Z,60.32
2023-10-15T23:40:52.143Z,60.34
2023-10-15T23:43:58.162Z,60.48
2023-10-15T23:47:13.568Z,60.58
2023-10-15T23:50:19.455Z,60.93
2023-10-15T23:53:36.254Z,60.79
2023-10-15T23:56:43.364Z,60.96
2023-10-15T23:59:54.837Z,61.01
